createdAt,value
2017-02-23T00:00:00.227Z,0
2017-02-23T00:01:03.419Z,0
2017-02-23T00:02:06.582Z,0
2017-02-23T00:03:11.705Z,0
2017-02-23T00:04:17.798Z,0
2017-02-23T00:05:21.960Z,0
2017-02-23T00:06:27.083Z,0
2017-02-23T00:07:33.186Z,0
2017-02-23T00:08:39.287Z,0
2017-02-23T00:09:43.445Z,0
2017-02-23T00:10:47.622Z,0
2017-02-23T00:11:53.766Z,0
2017-02-23T00:12:59.873Z,0
2017-02-23T00:14:04.976Z,0
2017-02-23T00:15:09.143Z,0
2017-02-23T00:16:14.244Z,0
2017-02-23T00:17:20.341Z,0
2017-02-23T00:18:26.438Z,0
2017-02-23T00:19:32.536Z,0
2017-02-23T00:20:38.635Z,0
2017-02-23T00:21:44.818Z,0
2017-02-23T00:22:50.904Z,0
2017-02-23T00:23:57.038Z,0
2017-02-23T00:25:03.123Z,0
2017-02-23T00:26:09.262Z,0
2017-02-23T00:27:15.363Z,0
2017-02-23T00:28:20.492Z,0
2017-02-23T00:29:25.618Z,0
2017-02-23T00:30:31.717Z,0
2017-02-23T00:31:37.810Z,0
2017-02-23T00:32:42.921Z,0
2017-02-23T00:33:49.016Z,0
2017-02-23T00:34:53.169Z,0
2017-02-23T00:35:58.295Z,0
2017-02-23T00:37:03.425Z,0
2017-02-23T00:38:09.514Z,0
2017-02-23T00:39:14.621Z,0
2017-02-23T00:40:20.768Z,0
2017-02-23T00:41:26.853Z,0
2017-02-23T00:42:32.936Z,0
2017-02-23T00:43:38.093Z,0
2017-02-23T00:44:44.175Z,0
2017-02-23T00:45:50.272Z,0
2017-02-23T00:46:55.390Z,0
2017-02-23T00:48:00.527Z,0
2017-02-23T00:49:06.627Z,0
2017-02-23T00:50:12.713Z,0
2017-02-23T00:51:17.832Z,0
2017-02-23T00:52:21.962Z,0
2017-02-23T00:53:26.119Z,0
2017-02-23T00:54:32.226Z,0
2017-02-23T00:55:38.313Z,0
2017-02-23T00:56:43.433Z,0
2017-02-23T00:57:47.603Z,0
2017-02-23T00:58:53.694Z,0
2017-02-23T00:59:59.784Z,0
2017-02-23T01:01:02.973Z,0
2017-02-23T01:02:09.091Z,0
2017-02-23T01:03:15.178Z,0
2017-02-23T01:04:21.305Z,0
2017-02-23T01:05:26.399Z,0
2017-02-23T01:06:31.514Z,0
2017-02-23T01:07:34.666Z,0
2017-02-23T01:08:38.831Z,0
2017-02-23T01:09:44.917Z,0
2017-02-23T01:10:49.077Z,0
2017-02-23T01:11:54.204Z,0
2017-02-23T01:13:00.291Z,0
2017-02-23T01:14:05.412Z,0
2017-02-23T01:15:10.542Z,0
2017-02-23T01:16:15.662Z,0
2017-02-23T01:17:20.755Z,0
2017-02-23T01:18:24.915Z,0
2017-02-23T01:19:30.012Z,0
2017-02-23T01:20:34.200Z,0
2017-02-23T01:21:39.303Z,0
2017-02-23T01:22:42.507Z,0
2017-02-23T01:23:45.702Z,0
2017-02-23T01:24:49.814Z,0
2017-02-23T01:25:54.922Z,0
2017-02-23T01:27:00.040Z,0
2017-02-23T01:28:06.186Z,0
2017-02-23T01:29:12.287Z,0
2017-02-23T01:30:18.377Z,0
2017-02-23T01:31:24.468Z,0
2017-02-23T01:32:30.558Z,0
2017-02-23T01:33:36.644Z,0
2017-02-23T01:34:42.734Z,0
2017-02-23T01:35:47.874Z,0
2017-02-23T01:36:53.988Z,0
2017-02-23T01:38:00.060Z,0
2017-02-23T01:39:05.202Z,0
2017-02-23T01:40:11.280Z,0
2017-02-23T01:41:17.377Z,0
2017-02-23T01:42:23.467Z,0
2017-02-23T01:43:28.598Z,0
2017-02-23T01:44:34.687Z,0
2017-02-23T01:45:39.814Z,0
2017-02-23T01:46:44.946Z,0
2017-02-23T01:47:51.033Z,0
2017-02-23T01:48:56.160Z,0
2017-02-23T01:50:01.298Z,0
2017-02-23T01:51:06.412Z,0
2017-02-23T01:52:12.510Z,0
2017-02-23T01:53:17.639Z,0
2017-02-23T01:54:23.727Z,0
2017-02-23T01:55:29.830Z,0
2017-02-23T01:56:34.956Z,0
2017-02-23T01:57:39.096Z,0
2017-02-23T01:58:45.185Z,0
2017-02-23T01:59:51.283Z,0
2017-02-23T02:00:56.415Z,0
2017-02-23T02:02:02.509Z,0
2017-02-23T02:03:07.632Z,0
2017-02-23T02:04:12.766Z,0
2017-02-23T02:05:16.920Z,0
2017-02-23T02:06:22.053Z,0
2017-02-23T02:07:28.141Z,0
2017-02-23T02:08:32.301Z,0
2017-02-23T02:09:38.395Z,0
2017-02-23T02:10:42.549Z,0
2017-02-23T02:11:47.649Z,0
2017-02-23T02:12:53.736Z,0
2017-02-23T02:13:59.828Z,0
2017-02-23T02:15:03.989Z,0
2017-02-23T02:16:10.082Z,0
2017-02-23T02:17:15.200Z,0
2017-02-23T02:18:21.290Z,0
2017-02-23T02:19:27.392Z,0
2017-02-23T02:20:32.518Z,0
2017-02-23T02:21:34.719Z,0
2017-02-23T02:22:40.819Z,0
2017-02-23T02:23:46.917Z,0
2017-02-23T02:24:51.060Z,0
2017-02-23T02:25:57.153Z,0
2017-02-23T02:27:01.305Z,0
2017-02-23T02:28:05.436Z,0
2017-02-23T02:29:11.534Z,0
2017-02-23T02:30:16.712Z,0
2017-02-23T02:31:21.833Z,0
2017-02-23T02:32:26.960Z,0
2017-02-23T02:33:32.100Z,0
2017-02-23T02:34:37.258Z,0
2017-02-23T02:35:42.379Z,0
2017-02-23T02:36:48.471Z,0
2017-02-23T02:37:54.618Z,0
2017-02-23T02:39:00.717Z,0
2017-02-23T02:40:06.818Z,0
2017-02-23T02:41:12.892Z,0
2017-02-23T02:42:18.023Z,0
2017-02-23T02:43:24.110Z,0
2017-02-23T02:44:27.303Z,0
2017-02-23T02:45:29.498Z,0
2017-02-23T02:46:33.662Z,0
2017-02-23T02:47:39.757Z,0
2017-02-23T02:48:45.861Z,0
2017-02-23T02:49:50.988Z,0
2017-02-23T02:50:55.159Z,0
2017-02-23T02:52:01.244Z,0
2017-02-23T02:53:07.375Z,0
2017-02-23T02:54:12.502Z,0
2017-02-23T02:55:15.659Z,0
2017-02-23T02:56:20.804Z,0
2017-02-23T02:57:26.029Z,0
2017-02-23T02:58:32.130Z,0
2017-02-23T02:59:38.228Z,0
2017-02-23T03:00:43.347Z,0
2017-02-23T03:01:48.478Z,0
2017-02-23T03:02:53.606Z,0
2017-02-23T03:03:58.755Z,0
2017-02-23T03:05:04.857Z,0
2017-02-23T03:06:10.948Z,0
2017-02-23T03:07:16.071Z,0
2017-02-23T03:08:21.197Z,0
2017-02-23T03:09:25.354Z,0
2017-02-23T03:10:30.474Z,0
2017-02-23T03:11:35.600Z,0
2017-02-23T03:12:40.720Z,0
2017-02-23T03:13:45.858Z,0
2017-02-23T03:14:50.018Z,0
2017-02-23T03:15:56.119Z,0
2017-02-23T03:17:02.208Z,0
2017-02-23T03:18:08.293Z,0
2017-02-23T03:19:12.436Z,0
2017-02-23T03:20:17.583Z,0
2017-02-23T03:21:21.741Z,0
2017-02-23T03:22:26.880Z,0
2017-02-23T03:23:30.030Z,0
2017-02-23T03:24:36.139Z,0
2017-02-23T03:25:42.229Z,0
2017-02-23T03:26:47.360Z,0
2017-02-23T03:27:53.451Z,0
2017-02-23T03:28:59.556Z,0
2017-02-23T03:30:05.665Z,0
2017-02-23T03:31:11.757Z,0
2017-02-23T03:32:16.882Z,0
2017-02-23T03:33:22.973Z,0
2017-02-23T03:34:29.074Z,0
2017-02-23T03:35:34.200Z,0
2017-02-23T03:36:38.360Z,0
2017-02-23T03:37:43.505Z,0
2017-02-23T03:38:49.588Z,0
2017-02-23T03:39:55.680Z,0
2017-02-23T03:41:00.829Z,0
2017-02-23T03:42:05.949Z,0
2017-02-23T03:43:11.049Z,0
2017-02-23T03:44:15.210Z,0
2017-02-23T03:45:20.326Z,0
2017-02-23T03:46:25.457Z,0
2017-02-23T03:47:30.597Z,0
2017-02-23T03:48:36.695Z,0
2017-02-23T03:49:42.785Z,0
2017-02-23T03:50:47.919Z,0
2017-02-23T03:51:54.020Z,0
2017-02-23T03:53:00.114Z,0
2017-02-23T03:54:06.209Z,0
2017-02-23T03:55:12.312Z,0
2017-02-23T03:56:17.471Z,0
2017-02-23T03:57:22.597Z,0
2017-02-23T03:58:28.695Z,0
2017-02-23T03:59:34.788Z,0
2017-02-23T04:00:38.928Z,0
2017-02-23T04:01:43.083Z,0
2017-02-23T04:02:48.221Z,0
2017-02-23T04:03:51.374Z,0
2017-02-23T04:04:56.491Z,0
2017-02-23T04:06:02.584Z,0
2017-02-23T04:07:08.679Z,0
2017-02-23T04:08:12.837Z,0
2017-02-23T04:09:16.998Z,0
2017-02-23T04:10:22.121Z,0
2017-02-23T04:11:28.215Z,0
2017-02-23T04:12:34.317Z,0
2017-02-23T04:13:40.408Z,0
2017-02-23T04:14:46.495Z,0
2017-02-23T04:15:51.632Z,0
2017-02-23T04:16:55.789Z,0
2017-02-23T04:17:58.949Z,0
2017-02-23T04:19:05.051Z,0
2017-02-23T04:20:11.147Z,0
2017-02-23T04:21:17.239Z,0
2017-02-23T04:22:22.355Z,0
2017-02-23T04:23:28.448Z,0
2017-02-23T04:24:33.577Z,0
2017-02-23T04:25:39.666Z,0
2017-02-23T04:26:45.774Z,0
2017-02-23T04:27:51.862Z,0
2017-02-23T04:28:57.973Z,0
2017-02-23T04:30:03.096Z,0
2017-02-23T04:31:09.189Z,0
2017-02-23T04:32:14.319Z,0
2017-02-23T04:33:19.448Z,0
2017-02-23T04:34:25.540Z,0
2017-02-23T04:35:29.669Z,0
2017-02-23T04:36:35.765Z,0
2017-02-23T04:37:40.900Z,0
2017-02-23T04:38:46.990Z,0
2017-02-23T04:39:53.084Z,0
2017-02-23T04:40:59.186Z,0
2017-02-23T04:42:05.280Z,0
2017-02-23T04:43:09.433Z,0
2017-02-23T04:44:14.561Z,0
2017-02-23T04:45:19.654Z,0
2017-02-23T04:46:24.837Z,0
2017-02-23T04:47:30.909Z,0
2017-02-23T04:48:36.033Z,0
2017-02-23T04:49:41.130Z,0
2017-02-23T04:50:47.225Z,0
2017-02-23T04:51:52.354Z,0
2017-02-23T04:52:58.459Z,0
2017-02-23T04:54:03.587Z,0
2017-02-23T04:55:08.715Z,0
2017-02-23T04:56:12.855Z,0
2017-02-23T04:57:17.979Z,0
2017-02-23T04:58:23.100Z,0
2017-02-23T04:59:28.242Z,0
2017-02-23T05:00:33.360Z,0
2017-02-23T05:01:38.481Z,0
2017-02-23T05:02:44.578Z,0
2017-02-23T05:03:49.705Z,0
2017-02-23T05:04:55.805Z,0
2017-02-23T05:06:00.934Z,0
2017-02-23T05:07:07.023Z,0
2017-02-23T05:08:10.182Z,0
2017-02-23T05:09:15.317Z,0
2017-02-23T05:10:21.410Z,0
2017-02-23T05:11:26.538Z,0
2017-02-23T05:12:30.678Z,0
2017-02-23T05:13:35.852Z,0
2017-02-23T05:14:40.981Z,0
2017-02-23T05:15:45.182Z,0
2017-02-23T05:16:51.235Z,0
2017-02-23T05:17:56.405Z,0
2017-02-23T05:19:00.538Z,0
2017-02-23T05:20:05.669Z,0
2017-02-23T05:21:11.742Z,0
2017-02-23T05:22:15.913Z,0
2017-02-23T05:23:21.041Z,0
2017-02-23T05:24:26.173Z,0
2017-02-23T05:25:32.277Z,0
2017-02-23T05:26:36.539Z,0
2017-02-23T05:27:40.696Z,0
2017-02-23T05:28:45.817Z,0
2017-02-23T05:29:50.945Z,0
2017-02-23T05:30:55.062Z,0
2017-02-23T05:31:58.237Z,0
2017-02-23T05:33:04.316Z,0
2017-02-23T05:34:09.441Z,0
2017-02-23T05:35:15.565Z,0
2017-02-23T05:36:21.668Z,0
2017-02-23T05:37:27.760Z,0
2017-02-23T05:38:32.888Z,0
2017-02-23T05:39:38.988Z,0
2017-02-23T05:40:45.075Z,0
2017-02-23T05:41:51.185Z,0
2017-02-23T05:42:57.269Z,0
2017-02-23T05:44:02.394Z,0
2017-02-23T05:45:06.525Z,0
2017-02-23T05:46:11.670Z,0
2017-02-23T05:47:15.802Z,0
2017-02-23T05:48:18.969Z,0
2017-02-23T05:49:25.063Z,0
2017-02-23T05:50:30.193Z,0
2017-02-23T05:51:35.292Z,0
2017-02-23T05:52:40.436Z,0
2017-02-23T05:53:45.547Z,0
2017-02-23T05:54:50.679Z,0
2017-02-23T05:55:53.864Z,0
2017-02-23T05:56:57.990Z,0
2017-02-23T05:58:04.093Z,0
2017-02-23T05:59:10.191Z,0
2017-02-23T06:00:15.326Z,0
2017-02-23T06:01:20.471Z,0
2017-02-23T06:02:26.594Z,0
2017-02-23T06:03:32.682Z,0
2017-02-23T06:04:37.809Z,0
2017-02-23T06:05:43.909Z,0
2017-02-23T06:06:49.037Z,0
2017-02-23T06:07:55.138Z,4
2017-02-23T06:08:59.290Z,4
2017-02-23T06:10:03.415Z,4
2017-02-23T06:11:08.535Z,4
2017-02-23T06:12:14.642Z,8
2017-02-23T06:13:19.774Z,8
2017-02-23T06:14:24.894Z,8
2017-02-23T06:15:30.989Z,8
2017-02-23T06:16:37.081Z,8
2017-02-23T06:17:43.167Z,8
2017-02-23T06:18:48.298Z,16
2017-02-23T06:19:54.398Z,16
2017-02-23T06:20:59.545Z,16
2017-02-23T06:22:03.662Z,16
2017-02-23T06:23:09.762Z,20
2017-02-23T06:24:15.863Z,20
2017-02-23T06:25:19.993Z,16
2017-02-23T06:26:25.119Z,20
2017-02-23T06:27:30.284Z,20
2017-02-23T06:28:36.421Z,28
2017-02-23T06:29:40.560Z,32
2017-02-23T06:30:45.689Z,32
2017-02-23T06:31:51.801Z,40
2017-02-23T06:32:55.968Z,32
2017-02-23T06:34:02.070Z,36
2017-02-23T06:35:08.166Z,40
2017-02-23T06:36:14.295Z,44
2017-02-23T06:37:19.374Z,52
2017-02-23T06:38:25.467Z,60
2017-02-23T06:39:30.594Z,52
2017-02-23T06:40:36.682Z,68
2017-02-23T06:41:42.772Z,68
2017-02-23T06:42:48.877Z,52
2017-02-23T06:43:53.993Z,64
2017-02-23T06:44:58.126Z,68
2017-02-23T06:46:03.301Z,80
2017-02-23T06:47:08.426Z,88
2017-02-23T06:48:14.523Z,100
2017-02-23T06:49:18.683Z,96
2017-02-23T06:50:22.832Z,124
2017-02-23T06:51:27.945Z,108
2017-02-23T06:52:34.025Z,144
2017-02-23T06:53:40.123Z,168
2017-02-23T06:54:46.235Z,208
2017-02-23T06:55:52.328Z,216
2017-02-23T06:56:56.485Z,232
2017-02-23T06:58:02.550Z,216
2017-02-23T06:59:08.681Z,272
2017-02-23T07:00:13.820Z,256
2017-02-23T07:01:19.915Z,224
2017-02-23T07:02:26.017Z,276
2017-02-23T07:03:31.160Z,376
2017-02-23T07:04:36.277Z,404
2017-02-23T07:05:42.364Z,380
2017-02-23T07:06:46.497Z,428
2017-02-23T07:07:52.591Z,408
2017-02-23T07:08:57.687Z,436
2017-02-23T07:10:03.775Z,508
2017-02-23T07:11:09.869Z,536
2017-02-23T07:12:14.023Z,584
2017-02-23T07:13:20.113Z,504
2017-02-23T07:14:23.282Z,512
2017-02-23T07:15:28.386Z,564
2017-02-23T07:16:32.511Z,472
2017-02-23T07:17:37.615Z,364
2017-02-23T07:18:43.714Z,624
2017-02-23T07:19:48.803Z,540
2017-02-23T07:20:54.900Z,556
2017-02-23T07:22:00.031Z,612
2017-02-23T07:23:06.128Z,556
2017-02-23T07:24:10.370Z,620
2017-02-23T07:25:15.473Z,696
2017-02-23T07:26:20.596Z,568
2017-02-23T07:27:24.772Z,592
2017-02-23T07:28:30.874Z,668
2017-02-23T07:29:36.979Z,616
2017-02-23T07:30:43.086Z,712
2017-02-23T07:31:49.194Z,628
2017-02-23T07:32:53.341Z,640
2017-02-23T07:33:58.478Z,712
2017-02-23T07:35:04.575Z,608
2017-02-23T07:36:09.710Z,560
2017-02-23T07:37:15.808Z,712
2017-02-23T07:38:21.074Z,756
2017-02-23T07:39:25.239Z,784
2017-02-23T07:40:31.341Z,652
2017-02-23T07:41:36.454Z,704
2017-02-23T07:42:40.605Z,712
2017-02-23T07:43:44.841Z,688
2017-02-23T07:44:49.947Z,692
2017-02-23T07:45:56.040Z,572
2017-02-23T07:46:58.236Z,676
2017-02-23T07:48:03.358Z,728
2017-02-23T07:49:08.489Z,628
2017-02-23T07:50:14.624Z,608
2017-02-23T07:51:19.724Z,616
2017-02-23T07:52:25.802Z,720
2017-02-23T07:53:30.925Z,748
2017-02-23T07:54:36.033Z,748
2017-02-23T07:55:40.193Z,788
2017-02-23T07:56:46.278Z,972
2017-02-23T07:57:51.407Z,836
2017-02-23T07:58:56.509Z,728
2017-02-23T08:00:02.601Z,940
2017-02-23T08:01:06.760Z,940
2017-02-23T08:02:11.907Z,944
2017-02-23T08:03:18.005Z,904
2017-02-23T08:04:23.083Z,1040
2017-02-23T08:05:28.206Z,888
2017-02-23T08:06:33.338Z,844
2017-02-23T08:07:38.444Z,752
2017-02-23T08:08:44.539Z,784
2017-02-23T08:09:50.660Z,1028
2017-02-23T08:10:56.761Z,960
2017-02-23T08:12:01.886Z,952
2017-02-23T08:13:06.055Z,888
2017-02-23T08:14:11.188Z,856
2017-02-23T08:15:16.286Z,872
2017-02-23T08:16:22.586Z,860
2017-02-23T08:17:26.773Z,712
2017-02-23T08:18:31.896Z,736
2017-02-23T08:19:37.195Z,772
2017-02-23T08:20:43.288Z,892
2017-02-23T08:21:48.414Z,1100
2017-02-23T08:23:59.769Z,756
2017-02-23T08:25:05.867Z,656
2017-02-23T08:26:10.043Z,728
2017-02-23T08:27:16.124Z,712
2017-02-23T08:28:22.218Z,684
2017-02-23T08:29:28.313Z,696
2017-02-23T08:30:33.444Z,804
2017-02-23T08:31:38.571Z,1064
2017-02-23T08:32:43.686Z,996
2017-02-23T08:33:48.815Z,1368
2017-02-23T08:34:53.926Z,1328
2017-02-23T08:35:59.051Z,1228
2017-02-23T08:37:04.150Z,1284
2017-02-23T08:38:09.248Z,1344
2017-02-23T08:39:13.411Z,1172
2017-02-23T08:40:17.545Z,1100
2017-02-23T08:41:23.648Z,1260
2017-02-23T08:42:27.806Z,1184
2017-02-23T08:43:33.905Z,1224
2017-02-23T08:44:38.080Z,1336
2017-02-23T08:45:42.237Z,1512
2017-02-23T08:46:48.325Z,1664
2017-02-23T08:47:53.463Z,1608
2017-02-23T08:48:59.575Z,1388
2017-02-23T08:50:04.652Z,1212
2017-02-23T08:51:10.748Z,1136
2017-02-23T08:52:14.921Z,1420
2017-02-23T08:53:21.007Z,1196
2017-02-23T08:54:27.094Z,2156
2017-02-23T08:55:33.193Z,1508
2017-02-23T08:56:37.324Z,1440
2017-02-23T08:57:42.425Z,1692
2017-02-23T08:58:47.561Z,1860
2017-02-23T08:59:52.692Z,1392
2017-02-23T09:00:58.783Z,2080
2017-02-23T09:02:04.896Z,2360
2017-02-23T09:03:09.068Z,2688
2017-02-23T09:04:14.207Z,2012
2017-02-23T09:05:19.305Z,1932
2017-02-23T09:06:24.433Z,1444
2017-02-23T09:07:29.560Z,1724
2017-02-23T09:08:35.655Z,1520
2017-02-23T09:09:40.782Z,1456
2017-02-23T09:10:46.871Z,1568
2017-02-23T09:11:51.999Z,1672
2017-02-23T09:12:58.099Z,1540
2017-02-23T09:14:04.188Z,1312
2017-02-23T09:15:09.301Z,1488
2017-02-23T09:16:14.421Z,1248
2017-02-23T09:17:20.509Z,1472
2017-02-23T09:18:25.639Z,1520
2017-02-23T09:19:30.762Z,1368
2017-02-23T09:20:36.863Z,1488
2017-02-23T09:21:41.995Z,1556
2017-02-23T09:22:45.160Z,1336
2017-02-23T09:23:50.311Z,1500
2017-02-23T09:24:55.441Z,1464
2017-02-23T09:26:01.542Z,1616
2017-02-23T09:27:05.675Z,1980
2017-02-23T09:28:11.766Z,1512
2017-02-23T09:29:17.879Z,1680
2017-02-23T09:30:23.965Z,1784
2017-02-23T09:31:30.052Z,1980
2017-02-23T09:32:35.153Z,1884
2017-02-23T09:33:40.281Z,1704
2017-02-23T09:34:46.384Z,1876
2017-02-23T09:35:51.512Z,1684
2017-02-23T09:36:56.643Z,1576
2017-02-23T09:38:02.756Z,1640
2017-02-23T09:39:08.851Z,1576
2017-02-23T09:40:14.947Z,1516
2017-02-23T09:41:21.033Z,2220
2017-02-23T09:42:27.142Z,1700
2017-02-23T09:43:32.252Z,2272
2017-02-23T09:44:35.408Z,1880
2017-02-23T09:45:39.543Z,1768
2017-02-23T09:46:44.662Z,1804
2017-02-23T09:47:50.774Z,1604
2017-02-23T09:48:56.864Z,2776
2017-02-23T09:50:02.978Z,2516
2017-02-23T09:51:08.091Z,2784
2017-02-23T09:52:13.225Z,3020
2017-02-23T09:53:18.346Z,2976
2017-02-23T09:54:21.533Z,2508
2017-02-23T09:55:25.712Z,2072
2017-02-23T09:56:31.789Z,2132
2017-02-23T09:57:35.965Z,2224
2017-02-23T09:58:42.053Z,1704
2017-02-23T09:59:48.151Z,2644
2017-02-23T10:00:53.273Z,2012
2017-02-23T10:01:57.413Z,1864
2017-02-23T10:03:02.502Z,1676
2017-02-23T10:04:07.631Z,1792
2017-02-23T10:05:12.768Z,1684
2017-02-23T10:06:16.937Z,1756
2017-02-23T10:07:23.025Z,1732
2017-02-23T10:08:27.160Z,1760
2017-02-23T10:09:33.255Z,2060
2017-02-23T10:10:39.371Z,1844
2017-02-23T10:11:45.460Z,1744
2017-02-23T10:12:51.555Z,1460
2017-02-23T10:13:57.641Z,1568
2017-02-23T10:15:02.777Z,1420
2017-02-23T10:16:07.896Z,1112
2017-02-23T10:17:13.988Z,1192
2017-02-23T10:18:20.087Z,1224
2017-02-23T10:19:26.186Z,1036
2017-02-23T10:20:32.284Z,1368
2017-02-23T10:21:37.440Z,1272
2017-02-23T10:22:43.502Z,1304
2017-02-23T10:23:48.626Z,1424
2017-02-23T10:24:52.751Z,1408
2017-02-23T10:25:58.859Z,1776
2017-02-23T10:27:04.938Z,1880
2017-02-23T10:28:09.122Z,2128
2017-02-23T10:29:15.221Z,2020
2017-02-23T10:30:20.359Z,2848
2017-02-23T10:31:26.448Z,1680
2017-02-23T10:32:32.538Z,1152
2017-02-23T10:33:38.636Z,1456
2017-02-23T10:34:43.749Z,1224
2017-02-23T10:35:47.930Z,1508
2017-02-23T10:36:53.008Z,1372
2017-02-23T10:37:59.121Z,1640
2017-02-23T10:39:03.261Z,1704
2017-02-23T10:40:09.350Z,1528
2017-02-23T10:41:15.447Z,1584
2017-02-23T10:42:19.586Z,1936
2017-02-23T10:43:23.746Z,1360
2017-02-23T10:44:27.916Z,1304
2017-02-23T10:45:34.023Z,1480
2017-02-23T10:46:38.166Z,1804
2017-02-23T10:47:44.253Z,1568
2017-02-23T10:48:50.343Z,2100
2017-02-23T10:49:56.443Z,1600
2017-02-23T10:51:02.545Z,2288
2017-02-23T10:52:08.642Z,2880
2017-02-23T10:53:13.768Z,2264
2017-02-23T10:54:19.867Z,2276
2017-02-23T10:55:24.027Z,2836
2017-02-23T10:56:30.129Z,3752
2017-02-23T10:57:36.224Z,3808
2017-02-23T10:58:42.312Z,3496
2017-02-23T10:59:48.411Z,4736
2017-02-23T11:00:53.541Z,4464
2017-02-23T11:01:59.632Z,5668
2017-02-23T11:03:04.786Z,5196
2017-02-23T11:04:08.951Z,5004
2017-02-23T11:05:15.019Z,4908
2017-02-23T11:06:17.277Z,5100
2017-02-23T11:07:23.342Z,3796
2017-02-23T11:08:28.466Z,4040
2017-02-23T11:09:33.605Z,5060
2017-02-23T11:10:39.703Z,7512
2017-02-23T11:11:42.858Z,4612
2017-02-23T11:12:48.966Z,7196
2017-02-23T11:13:55.053Z,5604
2017-02-23T11:15:01.148Z,5920
2017-02-23T11:16:05.357Z,5188
2017-02-23T11:17:11.480Z,7100
2017-02-23T11:18:17.549Z,5928
2017-02-23T11:19:22.703Z,5232
2017-02-23T11:20:27.809Z,4624
2017-02-23T11:21:32.976Z,4988
2017-02-23T11:22:39.049Z,4044
2017-02-23T11:23:45.162Z,5112
2017-02-23T11:24:51.252Z,4776
2017-02-23T11:25:55.511Z,3948
2017-02-23T11:26:59.670Z,3384
2017-02-23T11:28:05.768Z,3756
2017-02-23T11:29:10.904Z,3216
2017-02-23T11:30:16.021Z,2916
2017-02-23T11:31:22.117Z,2436
2017-02-23T11:32:27.248Z,2764
2017-02-23T11:33:33.452Z,2232
2017-02-23T11:34:39.525Z,2460
2017-02-23T11:35:45.657Z,2860
2017-02-23T11:36:51.763Z,3012
2017-02-23T11:37:56.964Z,2684
2017-02-23T11:39:03.062Z,2308
2017-02-23T11:40:08.180Z,3996
2017-02-23T11:41:14.288Z,2460
2017-02-23T11:42:18.449Z,2404
2017-02-23T11:43:22.598Z,2856
2017-02-23T11:44:28.707Z,3636
2017-02-23T11:45:33.815Z,3148
2017-02-23T11:46:37.970Z,3328
2017-02-23T11:47:43.090Z,4436
2017-02-23T11:48:49.187Z,5376
2017-02-23T11:49:55.299Z,6608
2017-02-23T11:51:01.387Z,5608
2017-02-23T11:52:04.544Z,4880
2017-02-23T11:53:07.736Z,5048
2017-02-23T11:54:12.842Z,4648
2017-02-23T11:55:18.937Z,3584
2017-02-23T11:56:25.036Z,4100
2017-02-23T11:57:30.165Z,4828
2017-02-23T11:58:36.259Z,4984
2017-02-23T11:59:42.351Z,4872
2017-02-23T12:00:48.507Z,3828
2017-02-23T12:01:53.634Z,3876
2017-02-23T12:02:59.723Z,3636
2017-02-23T12:04:05.824Z,4300
2017-02-23T12:05:10.955Z,3520
2017-02-23T12:06:16.078Z,2948
2017-02-23T12:07:21.244Z,3312
2017-02-23T12:08:27.308Z,5864
2017-02-23T12:09:33.397Z,5380
2017-02-23T12:10:38.525Z,4692
2017-02-23T12:11:43.664Z,5000
2017-02-23T12:12:49.792Z,3800
2017-02-23T12:13:54.887Z,3732
2017-02-23T12:15:00.995Z,4736
2017-02-23T12:17:13.181Z,3552
2017-02-23T12:18:19.274Z,2992
2017-02-23T12:19:25.368Z,3716
2017-02-23T12:20:30.507Z,4144
2017-02-23T12:21:35.605Z,3812
2017-02-23T12:22:40.730Z,3532
2017-02-23T12:23:45.852Z,3808
2017-02-23T12:24:50.981Z,2952
2017-02-23T12:25:55.123Z,3256
2017-02-23T12:26:59.276Z,5444
2017-02-23T12:28:04.400Z,4936
2017-02-23T12:29:08.534Z,5068
2017-02-23T12:30:13.653Z,6216
2017-02-23T12:31:19.748Z,5568
2017-02-23T12:32:23.924Z,3848
2017-02-23T12:33:30.019Z,4584
2017-02-23T12:34:34.153Z,3772
2017-02-23T12:35:39.250Z,5036
2017-02-23T12:36:44.389Z,3636
2017-02-23T12:37:49.493Z,5476
2017-02-23T12:38:54.638Z,4424
2017-02-23T12:40:00.726Z,4704
2017-02-23T12:41:04.873Z,2412
2017-02-23T12:42:10.995Z,3432
2017-02-23T12:43:16.100Z,5264
2017-02-23T12:44:20.260Z,5324
2017-02-23T12:45:26.349Z,3664
2017-02-23T12:46:32.442Z,3852
2017-02-23T12:47:38.548Z,4380
2017-02-23T12:48:43.642Z,3760
2017-02-23T12:49:48.769Z,3508
2017-02-23T12:50:54.856Z,2492
2017-02-23T12:52:00.951Z,3088
2017-02-23T12:53:07.056Z,2816
2017-02-23T12:54:11.221Z,3564
2017-02-23T12:55:16.324Z,2516
2017-02-23T12:56:21.477Z,3160
2017-02-23T12:57:27.567Z,3076
2017-02-23T12:58:32.689Z,2836
2017-02-23T12:59:36.843Z,2368
2017-02-23T13:00:41.957Z,2356
2017-02-23T13:01:48.049Z,2612
2017-02-23T13:02:53.184Z,2740
2017-02-23T13:03:59.282Z,2480
2017-02-23T13:05:04.402Z,2964
2017-02-23T13:06:09.532Z,2744
2017-02-23T13:07:13.669Z,2900
2017-02-23T13:08:18.794Z,3020
2017-02-23T13:09:23.899Z,2652
2017-02-23T13:10:29.989Z,1996
2017-02-23T13:11:36.085Z,2640
2017-02-23T13:12:42.189Z,3008
2017-02-23T13:13:47.340Z,2512
2017-02-23T13:14:53.402Z,2872
2017-02-23T13:15:59.513Z,2588
2017-02-23T13:17:03.695Z,2180
2017-02-23T13:18:09.786Z,3032
2017-02-23T13:19:15.888Z,3076
2017-02-23T13:20:21.972Z,3064
2017-02-23T13:21:28.071Z,3008
2017-02-23T13:22:33.199Z,2520
2017-02-23T13:23:38.335Z,3152
2017-02-23T13:24:41.584Z,3524
2017-02-23T13:25:47.703Z,2756
2017-02-23T13:26:52.837Z,2752
2017-02-23T13:27:58.925Z,2104
2017-02-23T13:29:03.105Z,2472
2017-02-23T13:30:09.302Z,3680
2017-02-23T13:31:13.464Z,3356
2017-02-23T13:32:18.605Z,2892
2017-02-23T13:33:24.679Z,3324
2017-02-23T13:34:30.766Z,4892
2017-02-23T13:35:33.960Z,6224
2017-02-23T13:36:38.101Z,5140
2017-02-23T13:37:44.199Z,4568
2017-02-23T13:38:50.293Z,3208
2017-02-23T13:39:55.412Z,2300
2017-02-23T13:41:00.524Z,2936
2017-02-23T13:42:05.653Z,3848
2017-02-23T13:43:11.744Z,3304
2017-02-23T13:44:17.841Z,2440
2017-02-23T13:45:23.990Z,2872
2017-02-23T13:46:30.082Z,3920
2017-02-23T13:47:35.212Z,2892
2017-02-23T13:48:39.383Z,2380
2017-02-23T13:49:43.950Z,4428
2017-02-23T13:50:49.606Z,5000
2017-02-23T13:51:53.984Z,3496
2017-02-23T13:53:00.092Z,4356
2017-02-23T13:54:05.227Z,4212
2017-02-23T13:55:09.350Z,4936
2017-02-23T13:56:15.454Z,4796
2017-02-23T13:57:19.572Z,4088
2017-02-23T13:58:24.680Z,7644
2017-02-23T13:59:30.787Z,7240
2017-02-23T14:00:34.922Z,5376
2017-02-23T14:01:40.070Z,3736
2017-02-23T14:02:45.174Z,2572
2017-02-23T14:03:49.349Z,2232
2017-02-23T14:04:53.508Z,4068
2017-02-23T14:05:58.639Z,5416
2017-02-23T14:07:04.732Z,4944
2017-02-23T14:08:07.910Z,5620
2017-02-23T14:09:10.134Z,6032
2017-02-23T14:10:16.260Z,4216
2017-02-23T14:11:22.332Z,3348
2017-02-23T14:12:27.539Z,4032
2017-02-23T14:13:32.672Z,4344
2017-02-23T14:14:37.801Z,3824
2017-02-23T14:15:42.902Z,3684
2017-02-23T14:16:48.027Z,2556
2017-02-23T14:17:54.139Z,2028
2017-02-23T14:18:59.281Z,4176
2017-02-23T14:20:04.396Z,5104
2017-02-23T14:21:08.552Z,4884
2017-02-23T14:22:14.662Z,4852
2017-02-23T14:23:17.856Z,5272
2017-02-23T14:24:23.954Z,5196
2017-02-23T14:25:29.080Z,4860
2017-02-23T14:26:34.210Z,4212
2017-02-23T14:27:39.348Z,3404
2017-02-23T14:28:45.546Z,2792
2017-02-23T14:29:49.734Z,2708
2017-02-23T14:30:55.846Z,2976
2017-02-23T14:32:01.949Z,2740
2017-02-23T14:33:08.037Z,2684
2017-02-23T14:34:13.161Z,2708
2017-02-23T14:35:18.294Z,2684
2017-02-23T14:36:24.397Z,2684
2017-02-23T14:37:30.479Z,2656
2017-02-23T14:38:35.592Z,2712
2017-02-23T14:39:41.692Z,2652
2017-02-23T14:40:46.800Z,2672
2017-02-23T14:41:50.959Z,2720
2017-02-23T14:42:57.063Z,2760
2017-02-23T14:44:02.211Z,2588
2017-02-23T14:45:08.313Z,3248
2017-02-23T14:46:13.422Z,2852
2017-02-23T14:47:19.525Z,3608
2017-02-23T14:48:22.689Z,4196
2017-02-23T14:49:28.792Z,4948
2017-02-23T14:50:34.911Z,3156
2017-02-23T14:51:40.009Z,2572
2017-02-23T14:52:44.165Z,2644
2017-02-23T14:53:49.308Z,3592
2017-02-23T14:54:55.406Z,5100
2017-02-23T14:56:00.528Z,6252
2017-02-23T14:57:03.694Z,8080
2017-02-23T14:58:08.842Z,8044
2017-02-23T14:59:13.946Z,5444
2017-02-23T15:00:20.044Z,5128
2017-02-23T15:01:24.213Z,3820
2017-02-23T15:02:29.352Z,3720
2017-02-23T15:03:34.541Z,3448
2017-02-23T15:04:40.628Z,3324
2017-02-23T15:05:45.771Z,2916
2017-02-23T15:06:50.907Z,3540
2017-02-23T15:07:57.017Z,3452
2017-02-23T15:09:03.172Z,4980
2017-02-23T15:10:08.263Z,3592
2017-02-23T15:11:14.361Z,2832
2017-02-23T15:12:20.474Z,4348
2017-02-23T15:13:26.575Z,4136
2017-02-23T15:14:31.707Z,3956